PWSweather.com
Personal Weather Stations
Station Observations
KMAMEDFI2
Medfield, MA 02052

Medfield, MA 02052

Lat: 42.1900822, Lon: -71.3296889

Elevation: 138

Station Type: Rainwise WS MK-III

http://www.medfieldweather.com

High Low Average
Temperature 49.9°F9.9°C 9.1°F-12.7°C 29.4°F-1.4°C
Dew Point 49.1°F9.5°C 5.7°F-14.6°C 25.4°F-3.7°C
Winds 8.1 mph 13.0 kmh Calm Calm 2.0 mph SSW3.2 kmh SSW
Wind Gusts 21.9 mph35.2 kmh -- 3.0 mph4.8 kmh
Humidity 97% 66% 85%
Pressure 30.47 in1031.8 mb 29.94 in1013.9 mb -
Precipitation 0.41 in10.4 mm - -
Hour Temp Dew Point Humidity Winds Wind Gusts Pressure Precip Precip Rate Daily Precip Total
12:00 AM 14.1°F-9.9°C 6.1°F-14.4°C 70% Calm Calm -- 30.49 in1032.5 mb - 0.00 in0.0 mm 0.01 in0.3 mm
12:10 AM 13.3°F-10.4°C 6.0°F-14.4°C 72% Calm Calm -- 30.49 in1032.5 mb - 0.00 in0.0 mm 0.01 in0.3 mm
12:20 AM 13.1°F-10.5°C 5.1°F-14.9°C 70% Calm Calm -- 30.49 in1032.5 mb - 0.00 in0.0 mm 0.01 in0.3 mm
12:30 AM 13.6°F-10.2°C 5.9°F-14.5°C 71% Calm Calm -- 30.48 in1032.2 mb - 0.00 in0.0 mm 0.01 in0.3 mm
12:40 AM 13.3°F-10.4°C 6.3°F-14.3°C 73% Calm Calm -- 30.48 in1032.2 mb - 0.00 in0.0 mm 0.01 in0.3 mm
12:50 AM 13.1°F-10.5°C 6.3°F-14.3°C 74% Calm Calm -- 30.48 in1032.2 mb - 0.00 in0.0 mm 0.01 in0.3 mm
01:00 AM 12.8°F-10.7°C 6.1°F-14.4°C 74% Calm Calm -- 30.47 in1031.8 mb - 0.00 in0.0 mm 0.00 in0.0 mm
01:10 AM 12.1°F-11.1°C 6.6°F-14.1°C 78% Calm Calm -- 30.47 in1031.8 mb - 0.00 in0.0 mm 0.00 in0.0 mm
01:20 AM 11.6°F-11.3°C 6.3°F-14.3°C 79% Calm Calm -- 30.46 in1031.5 mb - 0.00 in0.0 mm 0.00 in0.0 mm
01:30 AM 10.9°F-11.7°C 5.7°F-14.6°C 79% Calm Calm -- 30.45 in1031.2 mb - 0.00 in0.0 mm 0.00 in0.0 mm
01:40 AM 10.6°F-11.9°C 6.4°F-14.2°C 83% Calm Calm -- 30.46 in1031.5 mb - 0.00 in0.0 mm 0.00 in0.0 mm
01:50 AM 10.6°F-11.9°C 6.7°F-14.1°C 84% Calm Calm -- 30.46 in1031.5 mb - 0.00 in0.0 mm 0.00 in0.0 mm
02:00 AM 10.2°F-12.1°C 6.6°F-14.1°C 85% Calm Calm -- 30.45 in1031.2 mb - 0.00 in0.0 mm 0.00 in0.0 mm
02:10 AM 10.1°F-12.2°C 6.5°F-14.2°C 85% Calm Calm -- 30.45 in1031.2 mb - 0.00 in0.0 mm 0.00 in0.0 mm
02:20 AM 10.2°F-12.1°C 7.1°F-13.8°C 87% Calm Calm -- 30.45 in1031.2 mb - 0.00 in0.0 mm 0.00 in0.0 mm
02:30 AM 9.6°F-12.4°C 6.5°F-14.2°C 87% Calm Calm -- 30.45 in1031.2 mb - 0.00 in0.0 mm 0.00 in0.0 mm
02:40 AM 9.1°F-12.7°C 6.5°F-14.2°C 89% Calm Calm -- 30.44 in1030.8 mb - 0.00 in0.0 mm 0.00 in0.0 mm
02:50 AM 9.5°F-12.5°C 7.6°F-13.6°C 92% Calm Calm -- 30.44 in1030.8 mb - 0.00 in0.0 mm 0.00 in0.0 mm
03:00 AM 9.8°F-12.3°C 7.9°F-13.4°C 92% Calm Calm -- 30.43 in1030.5 mb - 0.00 in0.0 mm 0.00 in0.0 mm
03:10 AM 10.3°F-12.1°C 8.4°F-13.1°C 92% Calm Calm -- 30.43 in1030.5 mb - 0.00 in0.0 mm 0.00 in0.0 mm
03:20 AM 10.7°F-11.8°C 8.6°F-13.0°C 91% Calm Calm -- 30.42 in1030.1 mb - 0.00 in0.0 mm 0.00 in0.0 mm
03:30 AM 10.3°F-12.1°C 8.2°F-13.2°C 91% Calm Calm -- 30.42 in1030.1 mb - 0.00 in0.0 mm 0.00 in0.0 mm
03:40 AM 10.7°F-11.8°C 8.5°F-13.1°C 91% Calm Calm -- 30.41 in1029.8 mb - 0.00 in0.0 mm 0.00 in0.0 mm
03:50 AM 10.9°F-11.7°C 8.5°F-13.1°C 90% Calm Calm -- 30.40 in1029.5 mb - 0.00 in0.0 mm 0.00 in0.0 mm
04:00 AM 10.7°F-11.8°C 8.6°F-13.0°C 91% Calm Calm -- 30.39 in1029.1 mb - 0.00 in0.0 mm 0.00 in0.0 mm
04:10 AM 10.9°F-11.7°C 8.7°F-12.9°C 91% Calm Calm -- 30.38 in1028.8 mb - 0.00 in0.0 mm 0.00 in0.0 mm
04:20 AM 11.3°F-11.5°C 9.4°F-12.6°C 92% Calm Calm -- 30.38 in1028.8 mb - 0.00 in0.0 mm 0.00 in0.0 mm
04:30 AM 11.3°F-11.5°C 9.2°F-12.7°C 91% Calm Calm -- 30.38 in1028.8 mb - 0.00 in0.0 mm 0.00 in0.0 mm
04:40 AM 11.4°F-11.4°C 9.3°F-12.6°C 91% Calm Calm -- 30.38 in1028.8 mb - 0.00 in0.0 mm 0.00 in0.0 mm
04:50 AM 11.7°F-11.3°C 9.6°F-12.4°C 91% Calm Calm -- 30.38 in1028.8 mb - 0.00 in0.0 mm 0.00 in0.0 mm
05:00 AM 11.7°F-11.3°C 10.0°F-12.2°C 93% Calm Calm -- 30.37 in1028.4 mb - 0.00 in0.0 mm 0.00 in0.0 mm
05:10 AM 11.7°F-11.3°C 10.0°F-12.2°C 93% Calm Calm -- 30.36 in1028.1 mb - 0.00 in0.0 mm 0.00 in0.0 mm
05:20 AM 12.2°F-11.0°C 10.6°F-11.9°C 93% Calm Calm -- 30.36 in1028.1 mb - 0.00 in0.0 mm 0.00 in0.0 mm
05:30 AM 12.8°F-10.7°C 10.6°F-11.9°C 91% Calm Calm -- 30.36 in1028.1 mb - 0.00 in0.0 mm 0.00 in0.0 mm
05:40 AM 12.7°F-10.7°C 10.3°F-12.1°C 90% Calm Calm -- 30.35 in1027.8 mb - 0.00 in0.0 mm 0.00 in0.0 mm
05:50 AM 12.7°F-10.7°C 10.3°F-12.1°C 90% Calm Calm -- 30.35 in1027.8 mb - 0.00 in0.0 mm 0.00 in0.0 mm
06:00 AM 12.6°F-10.8°C 10.4°F-12.0°C 91% Calm Calm -- 30.34 in1027.4 mb - 0.00 in0.0 mm 0.00 in0.0 mm
06:10 AM 12.6°F-10.8°C 10.5°F-11.9°C 91% Calm Calm -- 30.34 in1027.4 mb - 0.00 in0.0 mm 0.00 in0.0 mm
06:20 AM 12.9°F-10.6°C 10.7°F-11.8°C 91% Calm Calm -- 30.34 in1027.4 mb - 0.00 in0.0 mm 0.00 in0.0 mm
06:30 AM 13.0°F-10.6°C 10.6°F-11.9°C 90% Calm Calm -- 30.34 in1027.4 mb - 0.00 in0.0 mm 0.00 in0.0 mm
06:40 AM 13.0°F-10.6°C 10.6°F-11.9°C 90% Calm Calm -- 30.34 in1027.4 mb - 0.00 in0.0 mm 0.00 in0.0 mm
06:50 AM 13.8°F-10.1°C 11.2°F-11.6°C 89% Calm Calm -- 30.32 in1026.8 mb - 0.00 in0.0 mm 0.00 in0.0 mm
07:00 AM 14.4°F-9.8°C 11.5°F-11.4°C 88% Calm Calm -- 30.32 in1026.8 mb - 0.00 in0.0 mm 0.00 in0.0 mm
07:10 AM 15.1°F-9.4°C 11.6°F-11.3°C 86% Calm Calm -- 30.32 in1026.8 mb - 0.00 in0.0 mm 0.00 in0.0 mm
07:20 AM 15.8°F-9.0°C 12.1°F-11.1°C 85% Calm Calm -- 30.32 in1026.8 mb - 0.00 in0.0 mm 0.00 in0.0 mm
07:30 AM 16.2°F-8.8°C 12.2°F-11.0°C 84% Calm Calm 1.2 mph1.9 kmh 30.32 in1026.8 mb - 0.00 in0.0 mm 0.00 in0.0 mm
07:40 AM 16.7°F-8.5°C 12.4°F-10.9°C 83% Calm Calm -- 30.30 in1026.1 mb - 0.00 in0.0 mm 0.00 in0.0 mm
07:50 AM 17.1°F-8.3°C 12.8°F-10.7°C 83% Calm Calm -- 30.30 in1026.1 mb - 0.00 in0.0 mm 0.00 in0.0 mm
08:00 AM 17.4°F-8.1°C 12.9°F-10.6°C 82% Calm Calm -- 30.30 in1026.1 mb - 0.00 in0.0 mm 0.00 in0.0 mm
08:10 AM 17.7°F-7.9°C 13.1°F-10.5°C 82% Calm Calm -- 30.31 in1026.4 mb - 0.00 in0.0 mm 0.00 in0.0 mm
08:20 AM 17.8°F-7.9°C 13.2°F-10.4°C 82% Calm Calm -- 30.30 in1026.1 mb - 0.00 in0.0 mm 0.00 in0.0 mm
08:30 AM 17.9°F-7.8°C 13.6°F-10.2°C 83% Calm Calm -- 30.31 in1026.4 mb - 0.00 in0.0 mm 0.00 in0.0 mm
08:40 AM 18.2°F-7.7°C 14.5°F-9.7°C 85% Calm Calm -- 30.31 in1026.4 mb - 0.00 in0.0 mm 0.00 in0.0 mm
08:50 AM 18.7°F-7.4°C 14.9°F-9.5°C 85% Calm Calm -- 30.31 in1026.4 mb - 0.00 in0.0 mm 0.00 in0.0 mm
09:00 AM 19.3°F-7.1°C 15.5°F-9.2°C 85% Calm Calm -- 30.31 in1026.4 mb - 0.00 in0.0 mm 0.00 in0.0 mm
09:10 AM 19.8°F-6.8°C 16.3°F-8.7°C 86% Calm Calm -- 30.31 in1026.4 mb - 0.00 in0.0 mm 0.00 in0.0 mm
09:20 AM 20.4°F-6.4°C 16.9°F-8.4°C 86% Calm Calm -- 30.30 in1026.1 mb - 0.00 in0.0 mm 0.00 in0.0 mm
09:30 AM 21.0°F-6.1°C 17.7°F-7.9°C 87% Calm Calm -- 30.29 in1025.7 mb - 0.00 in0.0 mm 0.00 in0.0 mm
09:40 AM 22.0°F-5.6°C 19.0°F-7.2°C 88% 1.2 mph SSE1.9 kmh SSE -- 30.28 in1025.4 mb - 0.00 in0.0 mm 0.00 in0.0 mm
09:50 AM 23.6°F-4.7°C 20.6°F-6.3°C 88% Calm Calm -- 30.28 in1025.4 mb - 0.00 in0.0 mm 0.00 in0.0 mm
10:00 AM 25.0°F-3.9°C 21.4°F-5.9°C 86% 1.2 mph SSE1.9 kmh SSE 2.3 mph3.7 kmh 30.28 in1025.4 mb - 0.00 in0.0 mm 0.00 in0.0 mm
10:10 AM 25.9°F-3.4°C 22.6°F-5.2°C 87% 1.2 mph SSE1.9 kmh SSE 2.3 mph3.7 kmh 30.28 in1025.4 mb - 0.00 in0.0 mm 0.00 in0.0 mm
10:20 AM 26.7°F-2.9°C 23.6°F-4.7°C 88% 2.3 mph SSE3.7 kmh SSE 2.3 mph3.7 kmh 30.27 in1025.1 mb - 0.00 in0.0 mm 0.00 in0.0 mm
10:30 AM 27.4°F-2.6°C 24.3°F-4.3°C 88% 1.2 mph SSE1.9 kmh SSE -- 30.26 in1024.7 mb - 0.00 in0.0 mm 0.00 in0.0 mm
10:40 AM 28.0°F-2.2°C 24.6°F-4.1°C 87% 2.3 mph S3.7 kmh S 2.3 mph3.7 kmh 30.26 in1024.7 mb - 0.00 in0.0 mm 0.00 in0.0 mm
10:50 AM 28.5°F-1.9°C 25.1°F-3.8°C 87% Calm Calm 1.2 mph1.9 kmh 30.26 in1024.7 mb - 0.00 in0.0 mm 0.00 in0.0 mm
11:00 AM 29.0°F-1.7°C 25.6°F-3.6°C 87% 1.2 mph S1.9 kmh S 2.3 mph3.7 kmh 30.26 in1024.7 mb - 0.00 in0.0 mm 0.00 in0.0 mm
11:10 AM 29.6°F-1.3°C 26.2°F-3.2°C 87% 1.2 mph S1.9 kmh S 2.3 mph3.7 kmh 30.26 in1024.7 mb - 0.00 in0.0 mm 0.00 in0.0 mm
11:20 AM 30.3°F-0.9°C 26.9°F-2.8°C 87% Calm Calm 3.5 mph5.6 kmh 30.26 in1024.7 mb - 0.00 in0.0 mm 0.00 in0.0 mm
11:30 AM 31.0°F-0.6°C 27.3°F-2.6°C 86% 2.3 mph SSE3.7 kmh SSE 5.8 mph9.3 kmh 30.26 in1024.7 mb - 0.00 in0.0 mm 0.00 in0.0 mm
11:40 AM 31.6°F-0.2°C 27.6°F-2.4°C 85% 2.3 mph S3.7 kmh S 2.3 mph3.7 kmh 30.25 in1024.4 mb - 0.00 in0.0 mm 0.00 in0.0 mm
11:50 AM 32.0°F0.0°C 28.0°F-2.2°C 85% 2.3 mph SE3.7 kmh SE 2.3 mph3.7 kmh 30.24 in1024.0 mb - 0.00 in0.0 mm 0.00 in0.0 mm
12:00 PM 32.6°F0.3°C 28.6°F-1.9°C 85% 2.3 mph S3.7 kmh S 3.5 mph5.6 kmh 30.24 in1024.0 mb - 0.00 in0.0 mm 0.00 in0.0 mm
12:10 PM 33.0°F0.6°C 29.0°F-1.7°C 85% 1.2 mph SSE1.9 kmh SSE 5.8 mph9.3 kmh 30.23 in1023.7 mb - 0.00 in0.0 mm 0.00 in0.0 mm
12:20 PM 33.4°F0.8°C 29.3°F-1.5°C 85% 2.3 mph SE3.7 kmh SE 8.1 mph13.0 kmh 30.23 in1023.7 mb - 0.00 in0.0 mm 0.00 in0.0 mm
12:30 PM 33.8°F1.0°C 29.7°F-1.3°C 85% 2.3 mph SSE3.7 kmh SSE 2.3 mph3.7 kmh 30.21 in1023.0 mb - 0.00 in0.0 mm 0.00 in0.0 mm
12:40 PM 34.4°F1.3°C 30.4°F-0.9°C 85% 3.5 mph S5.6 kmh S 11.5 mph18.5 kmh 30.21 in1023.0 mb - 0.00 in0.0 mm 0.00 in0.0 mm
12:50 PM 34.9°F1.6°C 30.5°F-0.8°C 84% 1.2 mph SW1.9 kmh SW 1.2 mph1.9 kmh 30.20 in1022.7 mb - 0.00 in0.0 mm 0.00 in0.0 mm
01:00 PM 35.5°F1.9°C 30.5°F-0.8°C 82% 2.3 mph SSW3.7 kmh SSW 3.5 mph5.6 kmh 30.20 in1022.7 mb - 0.00 in0.0 mm 0.00 in0.0 mm
01:10 PM 36.0°F2.2°C 30.4°F-0.9°C 80% 3.5 mph S5.6 kmh S 8.1 mph13.0 kmh 30.19 in1022.4 mb - 0.00 in0.0 mm 0.00 in0.0 mm
01:20 PM 37.0°F2.8°C 30.5°F-0.8°C 77% 3.5 mph SSE5.6 kmh SSE 6.9 mph11.1 kmh 30.19 in1022.4 mb - 0.00 in0.0 mm 0.00 in0.0 mm
01:30 PM 37.6°F3.1°C 30.0°F-1.1°C 74% 5.8 mph SW9.3 kmh SW 8.1 mph13.0 kmh 30.18 in1022.0 mb - 0.00 in0.0 mm 0.00 in0.0 mm
01:40 PM 37.7°F3.2°C 29.8°F-1.2°C 73% 2.3 mph WSW3.7 kmh WSW 8.1 mph13.0 kmh 30.17 in1021.7 mb - 0.00 in0.0 mm 0.00 in0.0 mm
01:50 PM 37.9°F3.3°C 28.9°F-1.7°C 70% 2.3 mph SSW3.7 kmh SSW 3.5 mph5.6 kmh 30.17 in1021.7 mb - 0.00 in0.0 mm 0.00 in0.0 mm
02:00 PM 38.1°F3.4°C 29.2°F-1.6°C 70% 3.5 mph SE5.6 kmh SE 8.1 mph13.0 kmh 30.16 in1021.3 mb - 0.01 in0.3 mm 0.01 in0.3 mm
02:10 PM 38.5°F3.6°C 29.6°F-1.3°C 70% 3.5 mph SSE5.6 kmh SSE 10.4 mph16.7 kmh 30.15 in1021.0 mb - 0.01 in0.3 mm 0.01 in0.3 mm
02:20 PM 39.0°F3.9°C 30.0°F-1.1°C 70% 2.3 mph W3.7 kmh W 6.9 mph11.1 kmh 30.15 in1021.0 mb - 0.01 in0.3 mm 0.01 in0.3 mm
02:30 PM 39.1°F3.9°C 29.8°F-1.2°C 69% 3.5 mph SW5.6 kmh SW 5.8 mph9.3 kmh 30.15 in1021.0 mb - 0.01 in0.3 mm 0.01 in0.3 mm
02:40 PM 39.2°F4.0°C 29.6°F-1.3°C 68% 4.6 mph W7.4 kmh W 5.8 mph9.3 kmh 30.15 in1021.0 mb - 0.01 in0.3 mm 0.01 in0.3 mm
02:50 PM 39.4°F4.1°C 29.4°F-1.4°C 67% 4.6 mph SW7.4 kmh SW 8.1 mph13.0 kmh 30.15 in1021.0 mb - 0.01 in0.3 mm 0.01 in0.3 mm
03:00 PM 39.4°F4.1°C 29.0°F-1.7°C 66% 5.8 mph WSW9.3 kmh WSW 9.2 mph14.8 kmh 30.15 in1021.0 mb - 0.00 in0.0 mm 0.01 in0.3 mm
03:10 PM 39.4°F4.1°C 29.7°F-1.3°C 68% 1.2 mph SSE1.9 kmh SSE 3.5 mph5.6 kmh 30.15 in1021.0 mb - 0.00 in0.0 mm 0.01 in0.3 mm
03:20 PM 39.6°F4.2°C 29.6°F-1.3°C 67% 1.2 mph SW1.9 kmh SW 2.3 mph3.7 kmh 30.15 in1021.0 mb - 0.00 in0.0 mm 0.01 in0.3 mm
03:30 PM 39.7°F4.3°C 29.7°F-1.3°C 67% 5.8 mph S9.3 kmh S 9.2 mph14.8 kmh 30.14 in1020.7 mb - 0.00 in0.0 mm 0.01 in0.3 mm
03:40 PM 39.6°F4.2°C 29.9°F-1.2°C 68% 3.5 mph SSE5.6 kmh SSE 6.9 mph11.1 kmh 30.14 in1020.7 mb - 0.00 in0.0 mm 0.01 in0.3 mm
03:50 PM 39.4°F4.1°C 30.5°F-0.8°C 70% 5.8 mph SW9.3 kmh SW 11.5 mph18.5 kmh 30.14 in1020.7 mb - 0.00 in0.0 mm 0.01 in0.3 mm
04:00 PM 39.2°F4.0°C 30.9°F-0.6°C 72% 2.3 mph E3.7 kmh E 6.9 mph11.1 kmh 30.13 in1020.3 mb - 0.00 in0.0 mm 0.01 in0.3 mm
04:10 PM 39.1°F3.9°C 31.2°F-0.4°C 73% 4.6 mph SW7.4 kmh SW 9.2 mph14.8 kmh 30.13 in1020.3 mb - 0.00 in0.0 mm 0.01 in0.3 mm
04:20 PM 39.0°F3.9°C 31.1°F-0.5°C 73% 4.6 mph S7.4 kmh S 2.3 mph3.7 kmh 30.13 in1020.3 mb - 0.00 in0.0 mm 0.01 in0.3 mm
04:30 PM 38.9°F3.8°C 31.7°F-0.2°C 75% 3.5 mph S5.6 kmh S 9.2 mph14.8 kmh 30.12 in1020.0 mb - 0.00 in0.0 mm 0.01 in0.3 mm
04:40 PM 38.9°F3.8°C 32.0°F0.0°C 76% 3.5 mph S5.6 kmh S 2.3 mph3.7 kmh 30.12 in1020.0 mb - 0.00 in0.0 mm 0.01 in0.3 mm
04:50 PM 38.9°F3.8°C 32.0°F0.0°C 76% 2.3 mph SE3.7 kmh SE 6.9 mph11.1 kmh 30.11 in1019.6 mb - 0.00 in0.0 mm 0.01 in0.3 mm
05:00 PM 38.9°F3.8°C 32.0°F0.0°C 76% 3.5 mph SSE5.6 kmh SSE 5.8 mph9.3 kmh 30.11 in1019.6 mb - 0.00 in0.0 mm 0.01 in0.3 mm
05:10 PM 38.9°F3.8°C 31.7°F-0.2°C 75% 4.6 mph SW7.4 kmh SW 5.8 mph9.3 kmh 30.10 in1019.3 mb - 0.00 in0.0 mm 0.01 in0.3 mm
05:20 PM 38.9°F3.8°C 32.0°F0.0°C 76% 3.5 mph SW5.6 kmh SW 5.8 mph9.3 kmh 30.10 in1019.3 mb - 0.00 in0.0 mm 0.01 in0.3 mm
05:30 PM 38.9°F3.8°C 32.3°F0.2°C 77% 1.2 mph SW1.9 kmh SW 3.5 mph5.6 kmh 30.09 in1019.0 mb - 0.00 in0.0 mm 0.01 in0.3 mm
05:40 PM 38.9°F3.8°C 32.6°F0.3°C 78% 2.3 mph SSE3.7 kmh SSE 6.9 mph11.1 kmh 30.09 in1019.0 mb - 0.00 in0.0 mm 0.01 in0.3 mm
05:50 PM 38.9°F3.8°C 32.6°F0.3°C 78% 1.2 mph S1.9 kmh S 2.3 mph3.7 kmh 30.09 in1019.0 mb - 0.00 in0.0 mm 0.01 in0.3 mm
06:00 PM 38.9°F3.8°C 33.0°F0.6°C 79% 2.3 mph SW3.7 kmh SW 2.3 mph3.7 kmh 30.09 in1019.0 mb - 0.00 in0.0 mm 0.01 in0.3 mm
06:10 PM 39.1°F3.9°C 33.5°F0.8°C 80% Calm Calm -- 30.08 in1018.6 mb - 0.00 in0.0 mm 0.01 in0.3 mm
06:20 PM 39.2°F4.0°C 33.6°F0.9°C 80% 5.8 mph S9.3 kmh S 5.8 mph9.3 kmh 30.08 in1018.6 mb - 0.00 in0.0 mm 0.01 in0.3 mm
06:30 PM 39.6°F4.2°C 34.3°F1.3°C 81% 3.5 mph SSE5.6 kmh SSE 2.3 mph3.7 kmh 30.07 in1018.3 mb - 0.00 in0.0 mm 0.01 in0.3 mm
06:40 PM 39.7°F4.3°C 34.3°F1.3°C 81% 4.6 mph SSE7.4 kmh SSE 6.9 mph11.1 kmh 30.07 in1018.3 mb - 0.00 in0.0 mm 0.01 in0.3 mm
06:50 PM 39.8°F4.3°C 34.8°F1.6°C 82% 3.5 mph SSW5.6 kmh SSW 5.8 mph9.3 kmh 30.07 in1018.3 mb - 0.00 in0.0 mm 0.01 in0.3 mm
07:00 PM 39.8°F4.3°C 34.8°F1.6°C 82% Calm Calm -- 30.07 in1018.3 mb - 0.00 in0.0 mm 0.01 in0.3 mm
07:10 PM 39.7°F4.3°C 34.7°F1.5°C 82% 1.2 mph S1.9 kmh S 2.3 mph3.7 kmh 30.07 in1018.3 mb - 0.00 in0.0 mm 0.01 in0.3 mm
07:20 PM 39.6°F4.2°C 34.9°F1.6°C 83% 2.3 mph SSW3.7 kmh SSW 2.3 mph3.7 kmh 30.06 in1017.9 mb - 0.00 in0.0 mm 0.01 in0.3 mm
07:30 PM 39.5°F4.2°C 35.1°F1.7°C 84% 1.2 mph SSE1.9 kmh SSE 1.2 mph1.9 kmh 30.06 in1017.9 mb - 0.00 in0.0 mm 0.01 in0.3 mm
07:40 PM 39.4°F4.1°C 35.3°F1.8°C 85% 1.2 mph SSW1.9 kmh SSW 2.3 mph3.7 kmh 30.05 in1017.6 mb - 0.00 in0.0 mm 0.01 in0.3 mm
07:50 PM 39.5°F4.2°C 35.7°F2.1°C 86% 1.2 mph SSW1.9 kmh SSW 2.3 mph3.7 kmh 30.05 in1017.6 mb - 0.00 in0.0 mm 0.01 in0.3 mm
08:00 PM 39.7°F4.3°C 36.1°F2.3°C 87% 2.3 mph SSE3.7 kmh SSE 2.3 mph3.7 kmh 30.04 in1017.3 mb - 0.00 in0.0 mm 0.01 in0.3 mm
08:10 PM 39.8°F4.3°C 36.3°F2.4°C 87% Calm Calm -- 30.05 in1017.6 mb - 0.00 in0.0 mm 0.01 in0.3 mm
08:20 PM 39.9°F4.4°C 36.9°F2.7°C 89% 1.2 mph SE1.9 kmh SE -- 30.04 in1017.3 mb - 0.00 in0.0 mm 0.01 in0.3 mm
08:30 PM 39.8°F4.3°C 36.8°F2.7°C 89% 2.3 mph S3.7 kmh S 2.3 mph3.7 kmh 30.03 in1016.9 mb - 0.00 in0.0 mm 0.01 in0.3 mm
08:40 PM 39.9°F4.4°C 37.2°F2.9°C 90% Calm Calm -- 30.02 in1016.6 mb - 0.00 in0.0 mm 0.01 in0.3 mm
08:50 PM 39.6°F4.2°C 37.2°F2.9°C 91% Calm Calm -- 30.01 in1016.3 mb - 0.00 in0.0 mm 0.01 in0.3 mm
09:00 PM 39.5°F4.2°C 37.6°F3.1°C 93% 1.2 mph S1.9 kmh S 5.8 mph9.3 kmh 30.01 in1016.3 mb - 0.00 in0.0 mm 0.01 in0.3 mm
09:10 PM 40.3°F4.6°C 38.7°F3.7°C 94% 2.3 mph SE3.7 kmh SE 3.5 mph5.6 kmh 30.01 in1016.3 mb - 0.00 in0.0 mm 0.01 in0.3 mm
09:20 PM 40.9°F4.9°C 39.3°F4.1°C 94% 1.2 mph SSW1.9 kmh SSW 2.3 mph3.7 kmh 30.00 in1015.9 mb - 0.00 in0.0 mm 0.01 in0.3 mm
09:30 PM 41.2°F5.1°C 39.6°F4.2°C 94% Calm Calm -- 30.00 in1015.9 mb - 0.00 in0.0 mm 0.01 in0.3 mm
09:40 PM 41.1°F5.1°C 39.8°F4.3°C 95% 1.2 mph SSE1.9 kmh SSE 1.2 mph1.9 kmh 30.00 in1015.9 mb - 0.00 in0.0 mm 0.01 in0.3 mm
09:50 PM 41.2°F5.1°C 39.9°F4.4°C 95% Calm Calm -- 30.00 in1015.9 mb - 0.00 in0.0 mm 0.01 in0.3 mm
10:00 PM 41.1°F5.1°C 40.0°F4.4°C 96% 2.3 mph SE3.7 kmh SE 3.5 mph5.6 kmh 30.00 in1015.9 mb - 0.02 in0.5 mm 0.03 in0.8 mm
10:10 PM 42.0°F5.6°C 40.9°F4.9°C 96% Calm Calm 2.3 mph3.7 kmh 29.99 in1015.6 mb - 0.02 in0.5 mm 0.03 in0.8 mm
10:20 PM 43.2°F6.2°C 42.1°F5.6°C 96% 2.3 mph ESE3.7 kmh ESE 2.3 mph3.7 kmh 29.98 in1015.2 mb - 0.04 in1.0 mm 0.05 in1.3 mm
10:30 PM 44.2°F6.8°C 43.1°F6.2°C 96% 3.5 mph SSE5.6 kmh SSE 2.3 mph3.7 kmh 29.98 in1015.2 mb - 0.04 in1.0 mm 0.05 in1.3 mm
10:40 PM 44.9°F7.2°C 43.8°F6.6°C 96% 3.5 mph S5.6 kmh S 3.5 mph5.6 kmh 29.97 in1014.9 mb - 0.04 in1.0 mm 0.05 in1.3 mm
10:50 PM 45.6°F7.6°C 44.5°F6.9°C 96% 3.5 mph S5.6 kmh S 3.5 mph5.6 kmh 29.97 in1014.9 mb - 0.06 in1.5 mm 0.07 in1.8 mm
11:00 PM 46.1°F7.8°C 45.3°F7.4°C 97% 3.5 mph S5.6 kmh S 3.5 mph5.6 kmh 29.97 in1014.9 mb - 0.06 in1.5 mm 0.09 in2.3 mm
11:10 PM 46.4°F8.0°C 45.3°F7.4°C 96% 2.3 mph SSE3.7 kmh SSE 3.5 mph5.6 kmh 29.97 in1014.9 mb - 0.09 in2.3 mm 0.12 in3.0 mm
11:20 PM 46.6°F8.1°C 45.8°F7.7°C 97% 3.5 mph S5.6 kmh S 8.1 mph13.0 kmh 29.96 in1014.6 mb - 0.09 in2.3 mm 0.14 in3.6 mm
11:30 PM 46.9°F8.3°C 46.1°F7.8°C 97% 4.6 mph S7.4 kmh S 9.2 mph14.8 kmh 29.97 in1014.9 mb - 0.12 in3.0 mm 0.17 in4.3 mm
11:40 PM 47.3°F8.5°C 46.5°F8.1°C 97% 4.6 mph SSW7.4 kmh SSW 8.1 mph13.0 kmh 29.96 in1014.6 mb - 0.15 in3.8 mm 0.20 in5.1 mm
11:50 PM 47.7°F8.7°C 46.9°F8.3°C 97% 4.6 mph S7.4 kmh S 3.5 mph5.6 kmh 29.96 in1014.6 mb - 0.16 in4.1 mm 0.23 in5.8 mm